createdAt,value
2022-12-24T00:01:04.307Z,3.35
2022-12-24T00:03:31.390Z,3.47
2022-12-24T00:05:58.593Z,3.72
2022-12-24T00:08:25.686Z,3.28
2022-12-24T00:10:54.120Z,4.15
2022-12-24T00:13:21.380Z,3.92
2022-12-24T00:15:49.088Z,3.83
2022-12-24T00:18:16.120Z,3.38
2022-12-24T00:20:48.898Z,3.50
2022-12-24T00:23:16.448Z,3.50
2022-12-24T00:25:43.900Z,4.05
2022-12-24T00:28:11.418Z,3.58
2022-12-24T00:30:39.951Z,4.20
2022-12-24T00:33:06.987Z,3.55
2022-12-24T00:35:35.362Z,4.00
2022-12-24T00:38:03.927Z,3.03
2022-12-24T00:40:31.785Z,3.40
2022-12-24T00:42:58.780Z,3.85
2022-12-24T00:45:27.930Z,3.63
2022-12-24T00:47:54.919Z,2.97
2022-12-24T00:50:21.816Z,3.65
2022-12-24T00:52:48.721Z,3.58
2022-12-24T00:55:15.794Z,4.22
2022-12-24T00:57:42.759Z,3.72
2022-12-24T01:00:10.095Z,3.88
2022-12-24T01:02:37.269Z,3.88
2022-12-24T01:05:10.485Z,3.45
2022-12-24T01:10:05.753Z,3.38
2022-12-24T01:12:32.907Z,3.72
2022-12-24T01:14:59.722Z,3.47
2022-12-24T01:17:26.595Z,4.28
2022-12-24T01:19:53.436Z,3.30
2022-12-24T01:22:20.391Z,4.22
2022-12-24T01:24:47.258Z,3.75
2022-12-24T01:27:14.072Z,3.42
2022-12-24T01:29:41.072Z,3.53
2022-12-24T01:32:07.848Z,3.63
2022-12-24T01:34:34.775Z,3.78
2022-12-24T01:37:01.714Z,3.78
2022-12-24T01:39:28.518Z,4.10
2022-12-24T01:42:14.191Z,3.40
2022-12-24T01:44:43.570Z,3.58
2022-12-24T01:47:22.298Z,4.28
2022-12-24T01:49:54.305Z,4.35
2022-12-24T01:52:34.828Z,3.50
2022-12-24T01:55:12.715Z,3.35
2022-12-24T01:57:46.700Z,3.38
2022-12-24T02:00:15.801Z,3.25
2022-12-24T02:02:46.375Z,3.58
2022-12-24T02:05:43.493Z,3.42
2022-12-24T02:08:11.237Z,3.30
2022-12-24T02:10:38.069Z,3.55
2022-12-24T02:13:06.263Z,2.67
2022-12-24T02:16:04.996Z,3.55
2022-12-24T02:18:38.650Z,4.10
2022-12-24T02:21:14.469Z,3.00
2022-12-24T02:24:16.370Z,3.67
2022-12-24T02:27:04.188Z,3.58
2022-12-24T02:29:52.514Z,3.75
2022-12-24T02:32:32.802Z,3.95
2022-12-24T02:35:38.618Z,3.88
2022-12-24T02:38:17.526Z,3.13
2022-12-24T02:40:56.778Z,2.92
2022-12-24T02:43:27.431Z,3.20
2022-12-24T02:46:01.152Z,2.88
2022-12-24T02:48:30.554Z,2.72
2022-12-24T02:51:03.375Z,2.75
2022-12-24T02:53:31.407Z,3.53
2022-12-24T02:56:17.758Z,3.45
2022-12-24T02:59:12.093Z,3.03
2022-12-24T03:01:56.930Z,2.72
2022-12-24T03:04:41.265Z,3.00
2022-12-24T03:07:26.330Z,3.22
2022-12-24T03:10:06.732Z,2.38
2022-12-24T03:12:46.280Z,2.50
2022-12-24T03:15:17.395Z,3.10
2022-12-24T03:17:47.830Z,2.42
2022-12-24T03:20:21.096Z,3.30
2022-12-24T03:22:48.325Z,4.32
2022-12-24T03:25:15.408Z,2.30
2022-12-24T03:27:42.650Z,3.20
2022-12-24T03:30:13.902Z,2.38
2022-12-24T03:32:40.979Z,3.33
2022-12-24T03:35:09.150Z,2.72
2022-12-24T03:37:36.082Z,3.28
2022-12-24T03:40:03.672Z,2.45
2022-12-24T03:42:30.471Z,2.50
2022-12-24T03:44:57.341Z,3.10
2022-12-24T03:47:24.195Z,3.35
2022-12-24T03:49:50.999Z,3.10
2022-12-24T03:52:17.812Z,3.00
2022-12-24T03:54:44.800Z,3.60
2022-12-24T03:57:11.580Z,3.13
2022-12-24T03:59:38.390Z,3.30
2022-12-24T04:02:05.607Z,3.17
2022-12-24T04:04:33.523Z,3.42
2022-12-24T04:07:00.344Z,3.38
2022-12-24T04:09:27.210Z,3.63
2022-12-24T04:11:54.029Z,3.33
2022-12-24T04:14:20.978Z,3.92
2022-12-24T04:16:47.939Z,3.13
2022-12-24T04:19:14.812Z,3.95
2022-12-24T04:21:41.645Z,3.50
2022-12-24T04:24:08.714Z,3.65
2022-12-24T04:26:35.698Z,4.03
2022-12-24T04:29:02.472Z,1.33
2022-12-24T04:31:29.350Z,1.77
2022-12-24T04:33:56.400Z,1.92
2022-12-24T04:36:23.357Z,1.38
2022-12-24T04:38:50.326Z,1.70
2022-12-24T04:41:23.861Z,1.73
2022-12-24T04:43:53.336Z,1.77
2022-12-24T04:46:23.243Z,1.17
2022-12-24T04:48:51.762Z,2.53
2022-12-24T04:51:19.477Z,1.67
2022-12-24T04:53:47.820Z,1.27
2022-12-24T04:56:16.729Z,1.52
2022-12-24T04:58:43.995Z,1.75
2022-12-24T05:01:25.443Z,1.40
2022-12-24T05:03:53.516Z,1.48
2022-12-24T05:06:26.965Z,1.60
2022-12-24T05:08:55.705Z,1.33
2022-12-24T05:11:22.957Z,1.70
2022-12-24T05:13:49.968Z,1.85
2022-12-24T05:16:19.124Z,1.52
2022-12-24T05:18:45.944Z,2.03
2022-12-24T05:21:22.213Z,1.90
2022-12-24T05:24:08.331Z,3.08
2022-12-24T05:26:41.549Z,2.00
2022-12-24T05:29:09.943Z,3.45
2022-12-24T05:31:36.992Z,3.00
2022-12-24T05:34:04.046Z,2.08
2022-12-24T05:36:31.197Z,2.38
2022-12-24T05:38:58.439Z,2.75
2022-12-24T05:41:25.939Z,3.35
2022-12-24T05:43:52.772Z,2.67
2022-12-24T05:46:22.154Z,2.53
2022-12-24T05:48:50.190Z,2.50
2022-12-24T05:51:19.671Z,2.10
2022-12-24T05:53:47.838Z,2.15
2022-12-24T05:56:21.488Z,2.03
2022-12-24T05:58:49.014Z,1.95
2022-12-24T06:01:16.206Z,1.70
2022-12-24T06:03:43.219Z,1.70
2022-12-24T06:06:13.786Z,2.22
2022-12-24T06:08:41.835Z,1.85
2022-12-24T06:11:12.054Z,1.60
2022-12-24T06:13:40.758Z,1.58
2022-12-24T06:16:10.703Z,1.65
2022-12-24T06:18:37.865Z,1.67
2022-12-24T06:21:05.610Z,1.40
2022-12-24T06:23:35.185Z,1.30
2022-12-24T06:26:03.630Z,1.13
2022-12-24T06:28:32.085Z,1.30
2022-12-24T06:31:02.997Z,1.70
2022-12-24T06:33:31.108Z,1.90
2022-12-24T06:35:58.012Z,1.33
2022-12-24T06:38:24.931Z,1.38
2022-12-24T06:40:52.334Z,1.70
2022-12-24T06:43:19.149Z,1.55
2022-12-24T06:45:47.620Z,1.95
2022-12-24T06:48:15.593Z,2.00
2022-12-24T06:50:43.102Z,1.67
2022-12-24T06:53:10.065Z,1.73
2022-12-24T06:55:37.491Z,1.98
2022-12-24T06:58:05.905Z,2.28
2022-12-24T07:00:32.852Z,2.83
2022-12-24T07:02:59.917Z,2.67
2022-12-24T07:05:28.289Z,2.97
2022-12-24T07:07:55.191Z,3.08
2022-12-24T07:10:22.190Z,3.22
2022-12-24T07:12:49.458Z,3.10
2022-12-24T07:15:16.858Z,3.42
2022-12-24T07:17:44.424Z,3.13
2022-12-24T07:20:14.931Z,4.35
2022-12-24T07:22:43.044Z,3.78
2022-12-24T07:25:11.207Z,3.67
2022-12-24T07:27:39.266Z,4.13
2022-12-24T07:30:06.896Z,3.88
2022-12-24T07:32:34.094Z,4.05
2022-12-24T07:35:01.196Z,3.60
2022-12-24T07:37:28.085Z,4.47
2022-12-24T07:39:54.889Z,5.03
2022-12-24T07:42:22.104Z,4.60
2022-12-24T07:44:48.932Z,4.15
2022-12-24T07:47:15.752Z,3.97
2022-12-24T07:49:42.634Z,3.95
2022-12-24T07:52:09.429Z,3.55
2022-12-24T07:54:36.185Z,3.90
2022-12-24T07:57:03.122Z,4.88
2022-12-24T07:59:29.908Z,4.03
2022-12-24T08:01:57.030Z,4.45
2022-12-24T08:04:24.058Z,3.78
2022-12-24T08:06:50.822Z,4.32
2022-12-24T08:09:17.678Z,4.22
2022-12-24T08:11:49.877Z,4.25
2022-12-24T08:14:19.601Z,6.32
2022-12-24T08:16:46.689Z,4.32
2022-12-24T08:19:13.624Z,4.72
2022-12-24T08:21:40.647Z,4.90
2022-12-24T08:24:07.551Z,4.40
2022-12-24T08:26:34.451Z,4.88
2022-12-24T08:29:02.052Z,4.35
2022-12-24T08:31:28.926Z,3.88
2022-12-24T08:33:55.947Z,4.15
2022-12-24T08:36:22.753Z,4.18
2022-12-24T08:38:49.514Z,4.22
2022-12-24T08:41:16.412Z,5.15
2022-12-24T08:43:43.258Z,4.28
2022-12-24T08:46:10.509Z,4.72
2022-12-24T08:48:37.632Z,4.30
2022-12-24T08:51:12.157Z,4.25
2022-12-24T08:53:39.834Z,5.13
2022-12-24T08:56:08.862Z,4.60
2022-12-24T08:58:37.122Z,4.60
2022-12-24T09:01:11.981Z,4.95
2022-12-24T09:03:39.044Z,5.05
2022-12-24T09:06:06.956Z,4.22
2022-12-24T09:08:34.663Z,4.68
2022-12-24T09:11:11.112Z,5.10
2022-12-24T09:13:38.540Z,4.03
2022-12-24T09:16:05.886Z,4.70
2022-12-24T09:18:33.217Z,3.88
2022-12-24T09:21:01.577Z,4.05
2022-12-24T09:23:29.398Z,4.03
2022-12-24T09:25:56.357Z,3.97
2022-12-24T09:28:23.388Z,3.90
2022-12-24T09:31:01.143Z,4.22
2022-12-24T09:33:29.671Z,4.13
2022-12-24T09:35:56.728Z,4.43
2022-12-24T09:38:23.829Z,3.90
2022-12-24T09:40:52.189Z,4.18
2022-12-24T09:43:24.601Z,4.25
2022-12-24T09:45:57.313Z,4.13
2022-12-24T09:48:30.073Z,4.30
2022-12-24T09:51:08.690Z,3.65
2022-12-24T09:54:10.941Z,3.97
2022-12-24T09:56:44.510Z,4.75
2022-12-24T09:59:22.724Z,4.55
2022-12-24T10:01:52.576Z,4.15
2022-12-24T10:04:22.859Z,4.70
2022-12-24T10:07:07.882Z,4.82
2022-12-24T10:10:00.679Z,4.28
2022-12-24T10:12:49.882Z,6.45
2022-12-24T10:15:55.386Z,4.55
2022-12-24T10:18:36.587Z,4.47
2022-12-24T10:21:34.935Z,4.88
2022-12-24T10:24:18.013Z,3.97
2022-12-24T10:27:05.220Z,3.97
2022-12-24T10:29:39.174Z,4.32
2022-12-24T10:32:09.092Z,3.70
2022-12-24T10:34:41.779Z,4.55
2022-12-24T10:37:16.401Z,4.40
2022-12-24T10:39:43.961Z,4.32
2022-12-24T10:42:13.473Z,3.90
2022-12-24T10:44:40.640Z,4.28
2022-12-24T10:47:09.580Z,4.13
2022-12-24T10:50:17.173Z,4.60
2022-12-24T10:52:46.005Z,4.03
2022-12-24T10:55:18.812Z,5.10
2022-12-24T10:57:47.075Z,4.40
2022-12-24T11:00:30.099Z,4.00
2022-12-24T11:03:33.720Z,4.75
2022-12-24T11:06:09.587Z,3.58
2022-12-24T11:08:39.581Z,3.83
2022-12-24T11:11:28.580Z,4.72
2022-12-24T11:13:58.882Z,4.22
2022-12-24T11:16:29.949Z,5.18
2022-12-24T11:19:01.253Z,4.47
2022-12-24T11:21:33.944Z,4.38
2022-12-24T11:24:28.634Z,4.22
2022-12-24T11:27:16.057Z,4.60
2022-12-24T11:29:42.791Z,4.32
2022-12-24T11:32:20.369Z,4.60
2022-12-24T11:34:47.815Z,4.75
2022-12-24T11:37:22.416Z,4.88
2022-12-24T11:39:55.428Z,5.30
2022-12-24T11:44:56.541Z,4.82
2022-12-24T11:47:34.411Z,4.72
2022-12-24T11:50:21.359Z,4.35
2022-12-24T11:52:59.498Z,5.63
2022-12-24T11:55:46.596Z,5.30
2022-12-24T11:58:39.510Z,4.80
2022-12-24T12:01:43.317Z,5.07
2022-12-24T12:04:18.784Z,5.18
2022-12-24T12:06:55.513Z,5.18
2022-12-24T12:09:31.472Z,5.40
2022-12-24T12:12:13.429Z,5.35
2022-12-24T12:14:48.161Z,4.05
2022-12-24T12:17:30.535Z,4.65
2022-12-24T12:20:19.045Z,6.18
2022-12-24T12:22:51.884Z,4.28
2022-12-24T12:25:26.453Z,4.93
2022-12-24T12:27:56.823Z,4.18
2022-12-24T12:30:25.263Z,4.90
2022-12-24T12:33:02.011Z,4.57
2022-12-24T12:35:36.747Z,4.93
2022-12-24T12:38:11.204Z,4.38
2022-12-24T12:40:50.472Z,4.13
2022-12-24T12:43:51.405Z,4.00
2022-12-24T12:46:56.419Z,3.95
2022-12-24T12:49:57.021Z,4.20
2022-12-24T12:52:48.208Z,5.88
2022-12-24T12:55:46.757Z,3.80
2022-12-24T12:58:25.680Z,4.22
2022-12-24T13:01:15.616Z,4.63
2022-12-24T13:03:55.074Z,5.40
2022-12-24T13:06:34.066Z,4.60
2022-12-24T13:09:25.179Z,5.05
2022-12-24T13:11:58.003Z,4.95
2022-12-24T13:14:57.460Z,3.75
2022-12-24T13:17:37.385Z,4.70
2022-12-24T13:20:14.939Z,5.00
2022-12-24T13:22:54.293Z,4.25
2022-12-24T13:25:49.697Z,3.92
2022-12-24T13:28:22.572Z,5.03
2022-12-24T13:30:51.809Z,5.15
2022-12-24T13:33:37.317Z,5.43
2022-12-24T13:36:09.541Z,5.10
2022-12-24T13:38:42.725Z,5.22
2022-12-24T13:41:40.985Z,4.38
2022-12-24T13:44:14.100Z,5.72
2022-12-24T13:46:56.963Z,5.03
2022-12-24T13:49:36.305Z,5.22
2022-12-24T13:52:09.330Z,5.72
2022-12-24T13:57:24.017Z,5.78
2022-12-24T13:59:59.685Z,4.50
2022-12-24T14:02:32.550Z,4.60
2022-12-24T14:05:03.810Z,5.57
2022-12-24T14:07:31.369Z,5.72
2022-12-24T14:09:59.739Z,5.25
2022-12-24T14:12:53.482Z,4.53
2022-12-24T14:15:45.205Z,4.93
2022-12-24T14:18:18.981Z,4.35
2022-12-24T14:20:53.068Z,4.78
2022-12-24T14:23:42.587Z,6.30
2022-12-24T14:26:15.610Z,4.18
2022-12-24T14:31:18.954Z,5.20
2022-12-24T14:33:46.215Z,4.82
2022-12-24T14:36:18.726Z,4.57
2022-12-24T14:38:46.058Z,5.18
2022-12-24T14:41:31.766Z,4.13
2022-12-24T14:44:33.945Z,3.92
2022-12-24T14:47:17.500Z,4.75
2022-12-24T14:50:08.442Z,5.05
2022-12-24T14:53:08.269Z,5.78
2022-12-24T14:55:42.913Z,4.68
2022-12-24T14:58:32.278Z,5.70
2022-12-24T15:01:01.989Z,3.78
2022-12-24T15:03:32.049Z,4.70
2022-12-24T15:06:03.270Z,4.95
2022-12-24T15:08:38.843Z,5.15
2022-12-24T15:11:08.544Z,5.18
2022-12-24T15:13:41.749Z,4.90
2022-12-24T15:16:12.232Z,5.25
2022-12-24T15:18:52.864Z,4.85
2022-12-24T15:21:44.081Z,5.80
2022-12-24T15:24:27.716Z,5.00
2022-12-24T15:26:55.854Z,5.15
2022-12-24T15:29:28.559Z,5.03
2022-12-24T15:32:05.675Z,6.93
2022-12-24T15:34:38.331Z,5.20
2022-12-24T15:37:14.855Z,5.65
2022-12-24T15:39:41.997Z,7.90
2022-12-24T15:42:16.083Z,7.85
2022-12-24T15:45:02.276Z,7.30
2022-12-24T15:47:39.368Z,6.85
2022-12-24T15:50:16.166Z,6.43
2022-12-24T15:52:44.087Z,6.32
2022-12-24T15:55:33.440Z,5.50
2022-12-24T15:58:02.391Z,6.15
2022-12-24T16:00:32.232Z,6.20
2022-12-24T16:03:31.961Z,6.47
2022-12-24T16:06:09.610Z,6.68
2022-12-24T16:08:40.205Z,5.72
2022-12-24T16:11:23.651Z,6.55
2022-12-24T16:14:02.612Z,6.90
2022-12-24T16:16:58.506Z,8.20
2022-12-24T16:19:39.454Z,6.15
2022-12-24T16:22:26.082Z,7.97
2022-12-24T16:24:55.626Z,7.30
2022-12-24T16:27:22.556Z,6.28
2022-12-24T16:29:50.363Z,7.32
2022-12-24T16:32:34.481Z,6.25
2022-12-24T16:35:03.337Z,7.32
2022-12-24T16:37:30.409Z,7.40
2022-12-24T16:39:57.838Z,7.63
2022-12-24T16:42:43.469Z,7.13
2022-12-24T16:45:10.793Z,8.18
2022-12-24T16:47:42.869Z,8.30
2022-12-24T16:50:16.256Z,8.48
2022-12-24T16:52:43.550Z,9.77
2022-12-24T16:55:14.807Z,8.65
2022-12-24T16:57:42.535Z,8.38
2022-12-24T17:00:15.796Z,7.45
2022-12-24T17:02:42.952Z,7.30
2022-12-24T17:05:10.246Z,8.80
2022-12-24T17:07:41.353Z,8.88
2022-12-24T17:10:12.555Z,7.88
2022-12-24T17:12:39.502Z,10.65
2022-12-24T17:15:06.949Z,10.65
2022-12-24T17:17:34.027Z,11.15
2022-12-24T17:20:01.102Z,10.30
2022-12-24T17:22:28.158Z,11.88
2022-12-24T17:24:55.487Z,9.30
2022-12-24T17:27:23.033Z,9.55
2022-12-24T17:29:50.195Z,11.27
2022-12-24T17:32:17.374Z,13.38
2022-12-24T17:34:44.220Z,11.07
2022-12-24T17:37:11.083Z,12.00
2022-12-24T17:39:37.993Z,11.20
2022-12-24T17:42:05.072Z,11.15
2022-12-24T17:44:32.058Z,10.25
2022-12-24T17:46:59.027Z,8.73
2022-12-24T17:49:25.983Z,10.32
2022-12-24T17:51:53.286Z,10.85
2022-12-24T17:54:20.069Z,9.45
2022-12-24T17:56:47.515Z,10.73
2022-12-24T17:59:14.520Z,10.70
2022-12-24T18:01:41.558Z,9.75
2022-12-24T18:04:08.695Z,10.90
2022-12-24T18:06:35.556Z,9.68
2022-12-24T18:09:03.158Z,9.48
2022-12-24T18:11:34.445Z,10.65
2022-12-24T18:14:03.383Z,10.80
2022-12-24T18:16:35.512Z,11.18
2022-12-24T18:19:04.325Z,11.30
2022-12-24T18:21:32.511Z,10.65
2022-12-24T18:24:00.041Z,9.63
2022-12-24T18:26:30.670Z,9.98
2022-12-24T18:28:58.896Z,9.45
2022-12-24T18:31:26.916Z,11.02
2022-12-24T18:33:54.865Z,9.10
2022-12-24T18:36:21.844Z,9.43
2022-12-24T18:38:49.059Z,10.23
2022-12-24T18:41:19.277Z,9.85
2022-12-24T18:43:46.289Z,10.27
2022-12-24T18:46:19.027Z,9.80
2022-12-24T18:48:46.956Z,11.30
2022-12-24T18:51:14.275Z,11.93
2022-12-24T18:53:41.105Z,11.70
2022-12-24T18:56:13.635Z,10.40
2022-12-24T18:58:42.596Z,11.52
2022-12-24T19:01:31.501Z,9.60
2022-12-24T19:03:58.601Z,10.73
2022-12-24T19:06:25.691Z,8.93
2022-12-24T19:08:59.224Z,9.43
2022-12-24T19:11:28.976Z,9.68
2022-12-24T19:13:57.929Z,8.95
2022-12-24T19:16:25.203Z,10.02
2022-12-24T19:18:52.087Z,10.40
2022-12-24T19:21:19.024Z,12.13
2022-12-24T19:23:46.464Z,12.13
2022-12-24T19:26:15.335Z,11.68
2022-12-24T19:28:42.769Z,12.05
2022-12-24T19:31:15.202Z,12.32
2022-12-24T19:33:44.562Z,8.73
2022-12-24T19:36:17.340Z,9.73
2022-12-24T19:38:44.362Z,7.00
2022-12-24T19:41:14.178Z,7.00
2022-12-24T19:43:43.992Z,6.70
2022-12-24T19:46:12.895Z,6.30
2022-12-24T19:48:40.618Z,6.40
2022-12-24T19:51:11.245Z,6.00
2022-12-24T19:53:39.889Z,7.18
2022-12-24T19:56:08.722Z,6.00
2022-12-24T19:58:36.183Z,5.88
2022-12-24T20:01:20.765Z,7.07
2022-12-24T20:03:48.866Z,5.18
2022-12-24T20:06:17.338Z,5.82
2022-12-24T20:08:44.404Z,5.85
2022-12-24T20:11:13.546Z,6.35
2022-12-24T20:13:41.222Z,6.10
2022-12-24T20:16:14.363Z,6.03
2022-12-24T20:18:41.442Z,5.93
2022-12-24T20:21:11.313Z,6.13
2022-12-24T20:23:39.838Z,5.90
2022-12-24T20:26:09.130Z,5.63
2022-12-24T20:28:36.864Z,5.88
2022-12-24T20:31:21.683Z,6.55
2022-12-24T20:33:48.587Z,5.85
2022-12-24T20:36:18.317Z,7.95
2022-12-24T20:38:45.863Z,6.55
2022-12-24T20:41:14.405Z,7.47
2022-12-24T20:43:47.951Z,7.93
2022-12-24T20:46:18.400Z,7.82
2022-12-24T20:48:45.780Z,8.00
2022-12-24T20:51:23.844Z,9.05
2022-12-24T20:53:53.615Z,8.52
2022-12-24T20:56:20.771Z,8.57
2022-12-24T20:58:49.046Z,10.23
2022-12-24T21:01:19.059Z,9.20
2022-12-24T21:03:46.115Z,9.05
2022-12-24T21:06:13.926Z,9.45
2022-12-24T21:08:40.807Z,9.25
2022-12-24T21:11:26.587Z,9.85
2022-12-24T21:13:53.383Z,10.10
2022-12-24T21:16:20.251Z,9.13
2022-12-24T21:18:47.146Z,9.25
2022-12-24T21:21:14.208Z,9.82
2022-12-24T21:23:40.991Z,10.25
2022-12-24T21:26:07.851Z,10.02
2022-12-24T21:28:34.677Z,9.52
2022-12-24T21:31:01.875Z,10.82
2022-12-24T21:33:36.240Z,10.38
2022-12-24T21:36:05.099Z,9.95
2022-12-24T21:38:32.435Z,11.30
2022-12-24T21:41:01.316Z,11.90
2022-12-24T21:43:31.972Z,11.57
2022-12-24T21:45:58.908Z,10.40
2022-12-24T21:48:45.141Z,12.18
2022-12-24T21:51:11.957Z,10.45
2022-12-24T21:53:57.548Z,11.27
2022-12-24T21:56:24.586Z,10.18
2022-12-24T21:58:51.944Z,12.13
2022-12-24T22:01:19.763Z,12.05
2022-12-24T22:03:49.932Z,10.10
2022-12-24T22:06:36.011Z,10.13
2022-12-24T22:09:21.372Z,9.27
2022-12-24T22:11:53.830Z,10.60
2022-12-24T22:14:21.846Z,9.68
2022-12-24T22:16:48.944Z,9.90
2022-12-24T22:19:15.776Z,9.65
2022-12-24T22:21:42.714Z,10.00
2022-12-24T22:24:09.586Z,10.20
2022-12-24T22:26:36.349Z,10.15
2022-12-24T22:29:06.609Z,10.38
2022-12-24T22:31:33.722Z,8.40
2022-12-24T22:34:00.872Z,9.90
2022-12-24T22:36:27.680Z,9.57
2022-12-24T22:38:54.452Z,8.27
2022-12-24T22:41:21.269Z,9.52
2022-12-24T22:43:49.801Z,9.32
2022-12-24T22:46:17.852Z,9.55
2022-12-24T22:48:45.897Z,9.13
2022-12-24T22:51:18.126Z,11.18
2022-12-24T22:53:45.661Z,8.15
2022-12-24T22:56:17.283Z,9.80
2022-12-24T22:58:44.507Z,9.15
2022-12-24T23:01:11.438Z,8.50
2022-12-24T23:03:38.388Z,8.13
2022-12-24T23:06:07.302Z,7.53
2022-12-24T23:08:35.922Z,7.88
2022-12-24T23:11:08.178Z,7.75
2022-12-24T23:13:56.332Z,7.07
2022-12-24T23:16:23.818Z,6.72
2022-12-24T23:18:50.844Z,7.30
2022-12-24T23:21:17.864Z,6.82
2022-12-24T23:23:44.632Z,5.82
2022-12-24T23:26:14.865Z,7.03
2022-12-24T23:28:41.766Z,6.65
2022-12-24T23:31:09.031Z,7.63
2022-12-24T23:33:36.369Z,6.47
2022-12-24T23:36:04.035Z,6.47
2022-12-24T23:38:31.040Z,5.50
2022-12-24T23:41:00.049Z,7.05
2022-12-24T23:43:27.287Z,7.05
2022-12-24T23:45:54.805Z,5.68
2022-12-24T23:48:23.451Z,5.90
2022-12-24T23:50:50.416Z,6.30
2022-12-24T23:53:18.342Z,5.30
2022-12-24T23:55:45.841Z,15.13
2022-12-24T23:58:16.625Z,9.57
